Terminal Aerodrome Forecast
Issued by NWS Austin/San Antonio, TX

Home | Current Version | Previous Version | Text Only | Print | Product List | Glossary On
Versions: 1 2 3 4 5 6 7 8 9 10 11 12 13 14 15 16 17 18
476
FTUS44 KEWX 022340
TAFSAT
TAF
KSAT 022340Z 0300/0406 05007KT 6SM -RA BKN025 OVC045
     FM030400 04011KT 5SM -RA BR OVC012
     FM030900 03010KT 2SM SHRA BR OVC004
     FM031900 01011KT 4SM -RA OVC008=

USA.gov is the U.S. government's official web portal to all federal, state and local government web resources and services.